createdAt,value
2022-09-18T00:00:25.552Z,10.40
2022-09-18T00:02:53.613Z,10.40
2022-09-18T00:05:23.748Z,10.40
2022-09-18T00:07:54.155Z,10.50
2022-09-18T00:10:22.299Z,10.60
2022-09-18T00:12:50.383Z,10.50
2022-09-18T00:15:18.593Z,10.60
2022-09-18T00:17:52.746Z,10.60
2022-09-18T00:20:20.831Z,10.60
2022-09-18T00:22:55.642Z,10.60
2022-09-18T00:25:24.731Z,10.60
2022-09-18T00:27:52.861Z,10.60
2022-09-18T00:30:20.908Z,10.60
2022-09-18T00:32:58.198Z,10.70
2022-09-18T00:35:27.482Z,10.70
2022-09-18T00:37:56.912Z,10.70
2022-09-18T00:40:25.112Z,10.70
2022-09-18T00:42:53.247Z,10.80
2022-09-18T00:45:33.142Z,10.70
2022-09-18T00:48:01.746Z,10.80
2022-09-18T00:50:30.099Z,10.70
2022-09-18T00:53:02.855Z,10.70
2022-09-18T00:55:34.323Z,10.70
2022-09-18T00:58:08.799Z,10.70
2022-09-18T01:00:40.749Z,10.70
2022-09-18T01:03:08.869Z,10.70
2022-09-18T01:05:52.859Z,10.70
2022-09-18T01:08:36.989Z,10.70
2022-09-18T01:11:20.759Z,10.70
2022-09-18T01:13:58.254Z,10.80
2022-09-18T01:16:34.847Z,10.80
2022-09-18T01:19:13.879Z,10.70
2022-09-18T01:21:45.893Z,10.80
2022-09-18T01:24:35.590Z,10.70
2022-09-18T01:27:10.536Z,10.70
2022-09-18T01:29:54.920Z,10.60
2022-09-18T01:32:27.867Z,10.60
2022-09-18T01:35:13.993Z,10.60
2022-09-18T01:37:56.925Z,10.70
2022-09-18T01:40:28.505Z,10.70
2022-09-18T01:43:00.868Z,10.70
2022-09-18T01:45:34.620Z,10.70
2022-09-18T01:48:06.554Z,10.60
2022-09-18T01:50:40.040Z,10.60
2022-09-18T01:53:13.029Z,10.60
2022-09-18T01:55:43.639Z,10.60
2022-09-18T01:58:17.372Z,10.60
2022-09-18T02:00:52.078Z,10.50
2022-09-18T02:03:23.734Z,10.50
2022-09-18T02:05:56.375Z,10.50
2022-09-18T02:08:38.807Z,10.50
2022-09-18T02:11:10.294Z,10.50
2022-09-18T02:13:42.452Z,10.50
2022-09-18T02:16:17.267Z,10.60
2022-09-18T02:18:51.435Z,10.50
2022-09-18T02:21:25.154Z,10.60
2022-09-18T02:23:54.185Z,10.50
2022-09-18T02:26:23.114Z,10.60
2022-09-18T02:28:54.475Z,10.50
2022-09-18T02:31:24.290Z,10.50
2022-09-18T02:33:54.978Z,10.50
2022-09-18T02:37:02.687Z,10.50
2022-09-18T02:39:49.034Z,10.50
2022-09-18T02:42:34.860Z,10.40
2022-09-18T02:45:11.820Z,10.50
2022-09-18T02:48:00.531Z,10.50
2022-09-18T02:50:35.819Z,10.40
2022-09-18T02:53:14.193Z,10.40
2022-09-18T02:55:48.025Z,10.40
2022-09-18T02:58:22.630Z,10.40
2022-09-18T03:00:52.129Z,10.40
2022-09-18T03:03:21.571Z,10.40
2022-09-18T03:05:49.670Z,10.40
2022-09-18T03:08:20.484Z,10.40
2022-09-18T03:10:48.558Z,10.40
2022-09-18T03:13:16.964Z,10.30
2022-09-18T03:15:45.221Z,10.30
2022-09-18T03:18:14.122Z,10.40
2022-09-18T03:20:45.671Z,10.30
2022-09-18T03:23:13.692Z,10.30
2022-09-18T03:25:42.063Z,10.30
2022-09-18T03:28:10.203Z,10.30
2022-09-18T03:30:38.320Z,10.30
2022-09-18T03:33:07.515Z,10.30
2022-09-18T03:35:35.830Z,10.30
2022-09-18T03:38:05.462Z,10.30
2022-09-18T03:40:33.518Z,10.20
2022-09-18T03:43:03.775Z,10.20
2022-09-18T03:45:32.650Z,10.20
2022-09-18T03:48:01.075Z,10.10
2022-09-18T03:50:29.342Z,10.10
2022-09-18T03:53:05.575Z,10.10
2022-09-18T03:55:33.650Z,10.10
2022-09-18T03:58:01.753Z,10.10
2022-09-18T04:00:30.158Z,10.20
2022-09-18T04:02:58.544Z,10.20
2022-09-18T04:05:27.198Z,10.20
2022-09-18T04:07:55.419Z,10.30
2022-09-18T04:10:27.150Z,10.30
2022-09-18T04:12:55.371Z,10.20
2022-09-18T04:15:23.774Z,10.20
2022-09-18T04:17:52.213Z,10.20
2022-09-18T04:20:21.008Z,10.20
2022-09-18T04:22:49.331Z,10.20
2022-09-18T04:25:18.374Z,10.20
2022-09-18T04:27:47.949Z,10.20
2022-09-18T04:30:16.635Z,10.20
2022-09-18T04:32:45.726Z,10.20
2022-09-18T04:35:14.200Z,10.20
2022-09-18T04:37:45.674Z,10.20
2022-09-18T04:40:14.183Z,10.20
2022-09-18T04:42:42.471Z,10.20
2022-09-18T04:45:13.537Z,10.20
2022-09-18T04:47:42.090Z,10.20
2022-09-18T04:50:16.823Z,10.10
2022-09-18T04:52:45.626Z,10.10
2022-09-18T04:55:15.559Z,10.10
2022-09-18T04:57:43.719Z,10.10
2022-09-18T05:00:14.739Z,10.10
2022-09-18T05:02:45.064Z,10.10
2022-09-18T05:05:14.619Z,10.20
2022-09-18T05:07:45.033Z,10.20
2022-09-18T05:10:19.200Z,10.20
2022-09-18T05:12:48.246Z,10.30
2022-09-18T05:15:18.061Z,10.20
2022-09-18T05:17:46.361Z,10.30
2022-09-18T05:20:15.430Z,10.20
2022-09-18T05:22:50.748Z,10.30
2022-09-18T05:25:20.679Z,10.30
2022-09-18T05:27:56.915Z,10.20
2022-09-18T05:30:27.936Z,10.20
2022-09-18T05:32:59.229Z,10.30
2022-09-18T05:35:29.449Z,10.30
2022-09-18T05:37:59.148Z,10.30
2022-09-18T05:40:31.053Z,10.30
2022-09-18T05:43:00.032Z,10.30
2022-09-18T05:45:29.551Z,10.30
2022-09-18T05:48:00.035Z,10.30
2022-09-18T05:50:29.523Z,10.40
2022-09-18T05:53:05.438Z,10.40
2022-09-18T05:55:34.243Z,10.40
2022-09-18T05:58:15.428Z,10.40
2022-09-18T06:00:47.314Z,10.40
2022-09-18T06:03:16.923Z,10.40
2022-09-18T06:05:53.230Z,10.50
2022-09-18T06:08:22.667Z,10.40
2022-09-18T06:10:51.247Z,10.50
2022-09-18T06:13:20.229Z,10.50
2022-09-18T06:15:52.311Z,10.50
2022-09-18T06:18:21.883Z,10.60
2022-09-18T06:20:54.772Z,10.50
2022-09-18T06:23:30.071Z,10.40
2022-09-18T06:26:01.036Z,10.50
2022-09-18T06:28:32.419Z,10.50
2022-09-18T06:31:03.199Z,10.50
2022-09-18T06:33:32.075Z,10.50
2022-09-18T06:36:00.750Z,10.60
2022-09-18T06:38:29.203Z,10.60
2022-09-18T06:40:57.274Z,10.60
2022-09-18T06:43:25.424Z,10.70
2022-09-18T06:46:07.894Z,10.80
2022-09-18T06:48:36.002Z,10.90
2022-09-18T06:51:04.148Z,11.10
2022-09-18T06:53:32.179Z,11.00
2022-09-18T06:56:02.355Z,11.00
2022-09-18T06:58:30.638Z,10.90
2022-09-18T07:01:00.677Z,11.00
2022-09-18T07:03:30.141Z,10.90
2022-09-18T07:05:58.362Z,11.10
2022-09-18T07:08:31.197Z,11.10
2022-09-18T07:11:02.249Z,11.10
2022-09-18T07:13:38.507Z,11.00
2022-09-18T07:16:07.016Z,11.10
2022-09-18T07:18:36.711Z,11.20
2022-09-18T07:21:10.915Z,11.20
2022-09-18T07:23:38.988Z,11.30
2022-09-18T07:26:08.083Z,11.50
2022-09-18T07:28:36.212Z,11.50
2022-09-18T07:31:05.172Z,11.50
2022-09-18T07:33:50.902Z,11.40
2022-09-18T07:36:26.751Z,11.50
2022-09-18T07:38:54.973Z,11.60
2022-09-18T07:41:23.055Z,11.60
2022-09-18T07:44:21.923Z,11.80
2022-09-18T07:46:51.167Z,11.80
2022-09-18T07:49:21.001Z,11.90
2022-09-18T07:51:49.408Z,12.00
2022-09-18T07:54:17.549Z,12.10
2022-09-18T07:56:47.104Z,12.00
2022-09-18T07:59:17.498Z,12.00
2022-09-18T08:01:47.034Z,12.10
2022-09-18T08:04:15.446Z,12.20
2022-09-18T08:06:55.086Z,12.10
2022-09-18T08:09:32.938Z,12.20
2022-09-18T08:12:02.077Z,12.20
2022-09-18T08:14:30.238Z,12.10
2022-09-18T08:16:58.395Z,12.40
2022-09-18T08:19:29.792Z,12.30
2022-09-18T08:21:59.403Z,12.90
2022-09-18T08:24:28.998Z,13.40
2022-09-18T08:27:06.363Z,13.80
2022-09-18T08:29:34.449Z,14.10
2022-09-18T08:32:07.734Z,14.40
2022-09-18T08:34:37.827Z,14.80
2022-09-18T08:37:19.433Z,15.50
2022-09-18T08:39:47.472Z,16.10
2022-09-18T08:42:27.779Z,16.10
2022-09-18T08:45:15.515Z,16.20
2022-09-18T08:47:57.746Z,16.20
2022-09-18T08:50:38.762Z,16.30
2022-09-18T08:53:21.214Z,16.50
2022-09-18T08:55:51.937Z,16.50
2022-09-18T08:58:30.537Z,16.50
2022-09-18T09:01:04.242Z,16.90
2022-09-18T09:03:43.514Z,16.60
2022-09-18T09:06:26.576Z,16.40
2022-09-18T09:09:21.202Z,16.30
2022-09-18T09:12:06.485Z,16.60
2022-09-18T09:15:24.391Z,16.50
2022-09-18T09:18:17.890Z,16.50
2022-09-18T09:20:52.850Z,16.40
2022-09-18T09:23:33.986Z,16.60
2022-09-18T09:26:08.343Z,16.70
2022-09-18T09:28:55.063Z,16.90
2022-09-18T09:31:27.864Z,16.70
2022-09-18T09:34:01.999Z,16.40
2022-09-18T09:36:32.827Z,16.80
2022-09-18T09:39:07.198Z,16.60
2022-09-18T09:41:48.931Z,16.60
2022-09-18T09:44:34.300Z,16.60
2022-09-18T09:47:30.316Z,16.70
2022-09-18T09:50:13.033Z,16.40
2022-09-18T09:52:46.575Z,16.80
2022-09-18T09:55:32.620Z,16.60
2022-09-18T09:58:13.474Z,16.10
2022-09-18T10:00:47.690Z,16.00
2022-09-18T10:03:46.657Z,15.50
2022-09-18T10:06:27.726Z,15.30
2022-09-18T10:09:02.343Z,15.30
2022-09-18T10:11:38.700Z,15.90
2022-09-18T10:14:15.359Z,16.30
2022-09-18T10:16:48.564Z,16.00
2022-09-18T10:19:22.842Z,16.60
2022-09-18T10:21:54.573Z,16.90
2022-09-18T10:24:28.550Z,17.00
2022-09-18T10:27:03.426Z,16.80
2022-09-18T10:29:36.190Z,17.10
2022-09-18T10:32:07.081Z,17.40
2022-09-18T10:34:40.960Z,17.80
2022-09-18T10:37:17.076Z,17.00
2022-09-18T10:39:57.597Z,17.00
2022-09-18T10:42:29.223Z,16.90
2022-09-18T10:45:02.864Z,16.90
2022-09-18T10:47:33.822Z,17.30
2022-09-18T10:50:08.881Z,17.00
2022-09-18T10:52:44.403Z,17.30
2022-09-18T10:55:27.098Z,17.80
2022-09-18T15:31:12.003Z,15.70
2022-09-18T15:33:43.787Z,15.70
2022-09-18T15:36:23.600Z,15.70
2022-09-18T15:38:56.210Z,15.70
2022-09-18T15:44:07.395Z,15.60
2022-09-18T15:46:42.297Z,15.70
2022-09-18T15:49:29.126Z,15.60
2022-09-18T15:52:00.285Z,15.60
2022-09-18T15:54:39.342Z,15.50
2022-09-18T15:57:18.856Z,15.40
2022-09-18T15:59:53.632Z,15.30
2022-09-18T16:02:39.622Z,15.30
2022-09-18T16:05:18.151Z,15.20
2022-09-18T16:08:05.974Z,15.10
2022-09-18T16:11:07.291Z,15.20
2022-09-18T16:13:47.298Z,15.10
2022-09-18T16:16:38.767Z,15.10
2022-09-18T16:19:21.209Z,15.10
2022-09-18T16:22:01.529Z,15.00
2022-09-18T16:24:44.853Z,15.00
2022-09-18T16:27:32.017Z,15.00
2022-09-18T16:30:17.818Z,14.90
2022-09-18T16:32:49.181Z,14.90
2022-09-18T16:35:32.351Z,14.90
2022-09-18T16:38:27.200Z,14.90
2022-09-18T16:41:10.705Z,14.80
2022-09-18T16:43:56.287Z,14.80
2022-09-18T16:46:49.302Z,14.80
2022-09-18T16:49:47.616Z,14.80
2022-09-18T16:52:27.519Z,14.70
2022-09-18T16:55:05.169Z,14.70
2022-09-18T16:57:50.956Z,14.60
2022-09-18T17:00:25.172Z,14.60
2022-09-18T17:03:04.866Z,14.60
2022-09-18T17:05:35.659Z,14.60
2022-09-18T17:08:05.818Z,14.50
2022-09-18T17:10:35.709Z,14.50
2022-09-18T17:13:03.957Z,14.50
2022-09-18T17:15:33.054Z,14.40
2022-09-18T17:18:01.820Z,14.40
2022-09-18T17:20:29.928Z,14.30
2022-09-18T17:23:01.091Z,14.20
2022-09-18T17:25:41.465Z,14.30
2022-09-18T17:28:12.415Z,14.30
2022-09-18T17:30:50.798Z,14.30
2022-09-18T17:33:20.616Z,14.30
2022-09-18T17:36:02.666Z,14.20
2022-09-18T17:38:33.487Z,14.20
2022-09-18T17:41:06.850Z,14.10
2022-09-18T17:43:35.551Z,14.00
2022-09-18T17:46:22.603Z,14.00
2022-09-18T17:48:58.958Z,14.00
2022-09-18T17:51:28.956Z,13.90
2022-09-18T17:54:11.468Z,13.90
2022-09-18T17:56:42.319Z,13.90
2022-09-18T17:59:14.019Z,13.90
2022-09-18T18:01:46.998Z,13.90
2022-09-18T18:04:22.440Z,13.80
2022-09-18T18:06:50.874Z,13.90
2022-09-18T18:09:18.897Z,13.80
2022-09-18T18:11:50.123Z,13.80
2022-09-18T18:14:18.478Z,13.70
2022-09-18T18:16:52.513Z,13.70
2022-09-18T18:19:22.766Z,13.60
2022-09-18T18:21:50.811Z,13.60
2022-09-18T18:24:18.948Z,13.60
2022-09-18T18:26:48.540Z,13.50
2022-09-18T18:29:18.081Z,13.60
2022-09-18T18:31:47.938Z,13.50
2022-09-18T18:34:17.619Z,13.50
2022-09-18T18:36:45.771Z,13.50
2022-09-18T18:39:15.487Z,13.50
2022-09-18T18:41:44.922Z,13.50
2022-09-18T18:44:16.666Z,13.50
2022-09-18T18:46:45.793Z,13.50
2022-09-18T18:49:17.019Z,13.60
2022-09-18T19:16:21.078Z,13.50
2022-09-18T19:18:59.799Z,13.50
2022-09-18T19:21:30.722Z,13.50
2022-09-18T19:23:59.858Z,13.50
2022-09-18T19:26:30.591Z,13.60
2022-09-18T19:29:00.700Z,13.60
2022-09-18T19:31:32.911Z,13.60
2022-09-18T19:34:01.073Z,13.50
2022-09-18T19:36:33.010Z,13.50
2022-09-18T19:39:07.440Z,13.50
2022-09-18T19:41:48.051Z,13.60
2022-09-18T19:44:22.943Z,13.50
2022-09-18T19:46:57.115Z,13.50
2022-09-18T19:49:31.623Z,13.40
2022-09-18T19:52:02.260Z,13.40
2022-09-18T19:54:42.934Z,13.40
2022-09-18T19:57:15.091Z,13.30
2022-09-18T19:59:44.346Z,13.40
2022-09-18T20:02:18.339Z,13.30
2022-09-18T20:04:47.069Z,13.40
2022-09-18T20:07:21.608Z,13.40
2022-09-18T20:09:51.510Z,13.40
2022-09-18T20:12:35.314Z,13.30
2022-09-18T20:15:06.761Z,13.30
2022-09-18T20:17:40.941Z,13.40
2022-09-18T20:20:14.476Z,13.40
2022-09-18T20:22:47.343Z,13.50
2022-09-18T20:25:17.475Z,13.50
2022-09-18T20:27:46.860Z,13.50
2022-09-18T20:30:17.529Z,13.50
2022-09-18T20:32:49.211Z,13.50
2022-09-18T20:35:18.367Z,13.50
2022-09-18T20:37:48.482Z,13.60
2022-09-18T20:40:17.245Z,13.50
2022-09-18T20:42:52.832Z,13.50
2022-09-18T20:45:23.442Z,13.60
2022-09-18T20:47:57.928Z,13.60
2022-09-18T20:50:29.445Z,13.60
2022-09-18T20:53:06.112Z,13.70
2022-09-18T20:55:37.204Z,13.60
2022-09-18T20:58:06.240Z,13.60
2022-09-18T21:00:34.537Z,13.70
2022-09-18T21:03:06.905Z,13.60
2022-09-18T21:05:36.226Z,13.60
2022-09-18T21:08:05.584Z,13.60
2022-09-18T21:10:34.297Z,13.60
2022-09-18T21:13:05.821Z,13.60
2022-09-18T21:15:35.008Z,13.60
2022-09-18T21:18:05.840Z,13.60
2022-09-18T21:20:35.675Z,13.70
2022-09-18T21:23:22.351Z,13.70
2022-09-18T21:25:50.492Z,13.70
2022-09-18T21:28:19.098Z,13.70
2022-09-18T21:30:48.419Z,13.70
2022-09-18T21:33:18.172Z,13.70
2022-09-18T21:35:54.943Z,13.70
2022-09-18T21:38:23.177Z,13.60
2022-09-18T21:40:51.376Z,13.60
2022-09-18T21:43:21.643Z,13.60
2022-09-18T21:45:50.045Z,13.60
2022-09-18T21:48:23.274Z,13.60
2022-09-18T21:50:51.377Z,13.60
2022-09-18T21:53:19.706Z,13.50
2022-09-18T21:55:49.508Z,13.50
2022-09-18T21:58:20.680Z,13.50
2022-09-18T22:00:49.174Z,13.50
2022-09-18T22:03:18.589Z,13.50
2022-09-18T22:05:51.805Z,13.50
2022-09-18T22:08:23.145Z,13.60
2022-09-18T22:10:51.294Z,13.60
2022-09-18T22:13:23.921Z,13.60
2022-09-18T22:15:56.353Z,13.60
2022-09-18T22:18:24.657Z,13.60
2022-09-18T22:20:54.287Z,13.60
2022-09-18T22:23:22.352Z,13.60
2022-09-18T22:25:57.179Z,13.50
2022-09-18T22:28:28.687Z,13.50
2022-09-18T22:30:57.245Z,13.50
2022-09-18T22:33:27.504Z,13.60
2022-09-18T22:36:04.351Z,13.60
2022-09-18T22:38:32.772Z,13.50
2022-09-18T22:41:04.005Z,13.50
2022-09-18T22:43:32.345Z,13.60
2022-09-18T22:46:05.492Z,13.60
2022-09-18T22:48:40.324Z,13.60
2022-09-18T22:51:13.284Z,13.60
2022-09-18T22:53:55.128Z,13.60
2022-09-18T22:56:25.020Z,13.60
2022-09-18T22:58:54.164Z,13.60
2022-09-18T23:01:26.265Z,13.60
2022-09-18T23:03:56.751Z,13.60
2022-09-18T23:06:28.150Z,13.60
2022-09-18T23:09:00.067Z,13.50
2022-09-18T23:11:31.798Z,13.50
2022-09-18T23:14:02.982Z,13.50
2022-09-18T23:16:32.874Z,13.50
2022-09-18T23:19:03.648Z,13.60
2022-09-18T23:21:37.578Z,13.60
2022-09-18T23:24:09.296Z,13.60
2022-09-18T23:26:39.484Z,13.50
2022-09-18T23:29:09.641Z,13.50
2022-09-18T23:31:39.859Z,13.50
2022-09-18T23:34:09.855Z,13.50
2022-09-18T23:36:42.276Z,13.50
2022-09-18T23:39:14.233Z,13.60
2022-09-18T23:41:43.411Z,13.60
2022-09-18T23:44:14.514Z,13.50
2022-09-18T23:46:43.911Z,13.50
2022-09-18T23:49:13.932Z,13.60
2022-09-18T23:51:46.973Z,13.50
2022-09-18T23:54:17.358Z,13.50
2022-09-18T23:56:46.449Z,13.60
2022-09-18T23:59:22.045Z,13.70
